Time;durP1;ratioP1;P1;durP2;ratioP2;P2;SDS_P1;SDS_P2;PMS_P1;PMS_P2;Temp;Humidity;BMP_temperature;BMP_pressure;BME280_temperature;BME280_humidity;BME280_pressure;Samples;Min_cycle;Max_cycle;Signal;HPM_P1;HPM_P2
2021/11/16 00:00:14;;;;;;;56.60;29.02;;;;;;;4.49;100.00;102433.38;10537193;28;20463;-83
2021/11/16 00:05:16;;;;;;;56.42;30.35;;;;;;;4.48;100.00;102421.38;10542447;28;20058;-83
2021/11/16 00:10:18;;;;;;;51.17;28.52;;;;;;;4.49;100.00;102427.38;10562413;28;20040;-84
2021/11/16 00:15:19;;;;;;;49.33;27.42;;;;;;;4.49;100.00;102424.81;10560367;28;20055;-83
2021/11/16 00:20:22;;;;;;;53.35;28.92;;;;;;;4.51;100.00;102424.13;10536234;28;20055;-83
2021/11/16 00:25:33;;;;;;;52.83;26.50;;;;;;;4.50;100.00;102409.53;10546389;28;20052;-83
2021/11/16 00:30:35;;;;;;;54.40;28.42;;;;;;;4.49;100.00;102405.22;10541022;28;20047;-83
2021/11/16 00:35:40;;;;;;;51.58;28.33;;;;;;;4.50;100.00;102406.09;10547506;28;20102;-82
2021/11/16 00:40:43;;;;;;;51.97;27.60;;;;;;;4.48;100.00;102407.66;10541618;28;20442;-83
2021/11/16 00:45:46;;;;;;;55.88;29.90;;;;;;;4.48;100.00;102405.09;10549771;28;20052;-82
2021/11/16 00:50:51;;;;;;;52.15;28.23;;;;;;;4.50;100.00;102398.41;10571930;28;20043;-83
2021/11/16 00:55:53;;;;;;;59.20;29.63;;;;;;;4.47;100.00;102393.06;10553800;28;20058;-83
2021/11/16 01:00:55;;;;;;;53.35;26.30;;;;;;;4.47;100.00;102396.50;10548617;28;20059;-83
2021/11/16 01:05:57;;;;;;;54.25;29.83;;;;;;;4.51;100.00;102387.34;10572190;28;20051;-83
2021/11/16 01:10:59;;;;;;;57.17;30.63;;;;;;;4.46;100.00;102386.16;10551634;28;20040;-82
2021/11/16 01:16:01;;;;;;;63.20;32.40;;;;;;;4.47;100.00;102372.56;10543381;28;20131;-83
2021/11/16 01:21:04;;;;;;;56.85;31.33;;;;;;;4.47;100.00;102372.56;10569347;28;20105;-82
2021/11/16 01:26:06;;;;;;;55.45;28.58;;;;;;;4.44;100.00;102362.13;10545310;28;20062;-83
2021/11/16 01:31:08;;;;;;;60.42;32.00;;;;;;;4.52;100.00;102366.06;10556661;28;20050;-83
2021/11/16 01:36:12;;;;;;;60.13;29.50;;;;;;;4.50;100.00;102359.97;10557391;28;20090;-83
2021/11/16 01:41:13;;;;;;;62.05;31.33;;;;;;;4.50;100.00;102360.84;10560059;28;20047;-83
2021/11/16 01:46:17;;;;;;;59.50;31.77;;;;;;;4.50;100.00;102352.28;10550006;28;20044;-83
2021/11/16 01:51:21;;;;;;;53.60;29.17;;;;;;;4.51;100.00;102357.50;10553320;28;20048;-83
2021/11/16 01:56:22;;;;;;;61.45;30.55;;;;;;;4.55;100.00;102348.34;10561999;28;20052;-83
2021/11/16 02:01:28;;;;;;;63.83;31.58;;;;;;;4.47;100.00;102352.06;10559762;28;20062;-83
2021/11/16 02:06:35;;;;;;;64.82;33.47;;;;;;;4.46;100.00;102358.00;10569127;28;20491;-83
2021/11/16 02:11:38;;;;;;;65.23;31.53;;;;;;;4.45;100.00;102358.78;10545583;28;20044;-83
2021/11/16 02:16:41;;;;;;;59.25;32.33;;;;;;;4.50;100.00;102353.16;10556964;28;20058;-83
2021/11/16 02:21:43;;;;;;;59.63;32.08;;;;;;;4.46;100.00;102356.31;10580673;28;20062;-83
2021/11/16 02:26:46;;;;;;;58.80;30.73;;;;;;;4.49;100.00;102353.06;10565564;28;20048;-83
2021/11/16 02:31:55;;;;;;;59.42;32.83;;;;;;;4.47;100.00;102352.94;10576579;28;20059;-83
2021/11/16 02:36:56;;;;;;;65.82;32.72;;;;;;;4.49;100.00;102346.28;10544792;28;20044;-83
2021/11/16 02:41:58;;;;;;;61.15;31.42;;;;;;;4.52;100.00;102343.88;10554544;28;20201;-83
2021/11/16 02:47:00;;;;;;;60.88;32.13;;;;;;;4.45;100.00;102341.72;10568674;28;20060;-83
2021/11/16 02:52:09;;;;;;;60.53;30.98;;;;;;;4.46;100.00;102338.38;10580485;28;20513;-83
2021/11/16 02:57:12;;;;;;;59.45;29.85;;;;;;;4.44;100.00;102333.97;10553966;28;20052;-83
2021/11/16 03:02:14;;;;;;;62.90;32.22;;;;;;;4.45;100.00;102333.16;10540961;28;20426;-83
2021/11/16 03:07:39;;;;;;;59.78;31.33;;;;;;;4.52;100.00;102336.19;10551762;28;20100;-83
2021/11/16 03:12:42;;;;;;;54.70;31.27;;;;;;;4.46;100.00;102332.38;10557161;28;20507;-83
2021/11/16 03:17:44;;;;;;;60.83;30.98;;;;;;;4.44;100.00;102329.72;10575713;28;20052;-83
2021/11/16 03:22:54;;;;;;;59.67;30.17;;;;;;;4.49;100.00;102318.09;10554988;28;20052;-83
2021/11/16 03:28:00;;;;;;;50.70;28.38;;;;;;;4.44;100.00;102324.59;10572515;28;20051;-83
2021/11/16 03:33:04;;;;;;;62.00;31.87;;;;;;;4.45;100.00;102313.53;10551116;28;20479;-83
2021/11/16 03:38:07;;;;;;;62.53;32.55;;;;;;;4.42;100.00;102309.91;10576368;28;20054;-83
2021/11/16 03:43:13;;;;;;;64.15;32.28;;;;;;;4.40;100.00;102314.03;10551577;28;20054;-83
2021/11/16 03:48:15;;;;;;;58.23;31.33;;;;;;;4.45;100.00;102312.66;10565459;28;20047;-82
2021/11/16 03:53:16;;;;;;;59.97;31.42;;;;;;;4.52;100.00;102313.13;10541623;28;20556;-83
2021/11/16 03:58:20;;;;;;;59.20;30.73;;;;;;;4.55;100.00;102320.16;10550808;28;20054;-83
2021/11/16 04:03:24;;;;;;;62.83;29.95;;;;;;;4.46;100.00;102324.69;10553680;28;20078;-83
2021/11/16 04:08:26;;;;;;;58.95;32.08;;;;;;;4.50;100.00;102324.97;10550485;28;20083;-83
2021/11/16 04:13:28;;;;;;;59.97;28.83;;;;;;;4.44;100.00;102324.59;10550791;28;20626;-83
2021/11/16 04:18:30;;;;;;;56.08;29.02;;;;;;;4.44;100.00;102316.03;10549201;28;20044;-83
2021/11/16 04:23:32;;;;;;;56.50;29.13;;;;;;;4.45;100.00;102313.53;10535659;28;20051;-83
2021/11/16 04:28:34;;;;;;;54.33;29.67;;;;;;;4.38;100.00;102316.53;10543002;28;20039;-83
2021/11/16 04:33:36;;;;;;;63.60;31.40;;;;;;;4.40;100.00;102322.63;10554384;28;20055;-82
2021/11/16 04:38:37;;;;;;;66.40;33.90;;;;;;;4.36;100.00;102320.63;10562473;28;20391;-83
2021/11/16 04:43:39;;;;;;;63.25;33.22;;;;;;;4.43;100.00;102319.38;10556279;28;20058;-83
2021/11/16 05:04:22;;;;;;;62.72;30.63;;;;;;;4.27;100.00;102319.19;10550346;28;20047;-83
2021/11/16 05:09:23;;;;;;;64.75;31.75;;;;;;;4.24;100.00;102307.94;10550808;28;20052;-83
2021/11/16 05:14:26;;;;;;;64.32;32.40;;;;;;;4.31;100.00;102318.56;10534400;28;20055;-83
2021/11/16 05:19:28;;;;;;;62.90;33.30;;;;;;;4.36;100.00;102314.63;10551543;28;20515;-83
2021/11/16 05:24:30;;;;;;;72.50;35.22;;;;;;;4.31;100.00;102323.69;10547934;28;20052;-83
2021/11/16 05:29:32;;;;;;;69.45;33.38;;;;;;;4.30;100.00;102316.81;10569865;28;20472;-83
2021/11/16 05:34:33;;;;;;;68.25;34.00;;;;;;;4.39;100.00;102325.09;10568298;28;20066;-82
2021/11/16 05:39:35;;;;;;;62.03;32.15;;;;;;;4.35;100.00;102315.44;10546278;28;20505;-83
2021/11/16 05:44:36;;;;;;;67.72;31.92;;;;;;;4.32;100.00;102323.81;10556282;28;20047;-83
2021/11/16 05:49:38;;;;;;;74.75;33.72;;;;;;;4.32;100.00;102323.81;10565380;28;20059;-82
2021/11/16 05:54:43;;;;;;;68.03;32.95;;;;;;;4.41;100.00;102321.81;10542600;28;20054;-83
2021/11/16 05:59:45;;;;;;;66.00;33.75;;;;;;;4.27;100.00;102308.94;10565338;28;20058;-81
2021/11/16 06:04:46;;;;;;;68.05;33.38;;;;;;;4.30;100.00;102322.81;10560583;28;20458;-83
2021/11/16 06:09:48;;;;;;;72.70;35.30;;;;;;;4.23;100.00;102320.66;10561169;28;20042;-82
2021/11/16 06:14:50;;;;;;;67.93;35.33;;;;;;;4.21;100.00;102312.00;10564771;28;20043;-82
2021/11/16 06:19:52;;;;;;;69.80;33.50;;;;;;;4.28;100.00;102313.28;10548829;28;20052;-82
2021/11/16 06:24:54;;;;;;;64.32;30.98;;;;;;;4.30;100.00;102320.25;10555540;28;20052;-82
2021/11/16 06:29:56;;;;;;;66.80;33.58;;;;;;;4.22;100.00;102318.88;10545530;28;20503;-82
2021/11/16 06:34:57;;;;;;;68.85;34.85;;;;;;;4.20;100.00;102320.47;10550650;28;20060;-82
2021/11/16 06:39:59;;;;;;;76.88;34.80;;;;;;;4.19;100.00;102319.56;10560992;28;20048;-82
2021/11/16 06:45:00;;;;;;;65.28;33.55;;;;;;;4.14;100.00;102317.50;10564571;28;20101;-82
2021/11/16 06:50:03;;;;;;;75.97;35.88;;;;;;;4.09;100.00;102322.34;10567725;28;20062;-82
2021/11/16 06:55:08;;;;;;;68.35;35.10;;;;;;;4.18;100.00;102312.66;10573016;28;20419;-83
2021/11/16 07:00:10;;;;;;;71.72;34.08;;;;;;;4.11;100.00;102307.06;10566231;28;20509;-82
2021/11/16 07:05:12;;;;;;;67.38;31.88;;;;;;;4.18;100.00;102311.78;10580030;28;20083;-82
2021/11/16 07:10:20;;;;;;;71.18;33.58;;;;;;;4.05;100.00;102315.22;10579935;28;20447;-82
2021/11/16 07:15:22;;;;;;;75.13;33.67;;;;;;;4.08;100.00;102320.53;10577085;28;20065;-82
2021/11/16 07:20:24;;;;;;;67.90;32.53;;;;;;;4.14;100.00;102327.72;10574277;28;20044;-82
2021/11/16 07:25:27;;;;;;;68.57;30.92;;;;;;;4.03;100.00;102321.03;10567810;28;20131;-82
2021/11/16 07:30:33;;;;;;;60.30;28.38;;;;;;;4.12;100.00;102311.41;10552582;28;20380;-82
2021/11/16 07:35:35;;;;;;;72.45;32.33;;;;;;;4.08;100.00;102323.09;10557570;28;20052;-82
2021/11/16 07:40:41;;;;;;;66.53;31.27;;;;;;;4.15;100.00;102311.59;10543530;28;20059;-82
2021/11/16 07:45:53;;;;;;;73.60;35.20;;;;;;;4.16;100.00;102323.63;10562816;28;20052;-82
2021/11/16 07:50:58;;;;;;;60.20;28.02;;;;;;;4.21;100.00;102322.25;10539211;28;20078;-82
2021/11/16 07:56:09;;;;;;;66.88;29.30;;;;;;;4.17;100.00;102325.38;10563071;28;20048;-82
2021/11/16 08:01:15;;;;;;;56.78;28.15;;;;;;;4.27;100.00;102329.44;10561039;28;20055;-81
2021/11/16 08:06:26;;;;;;;68.77;30.97;;;;;;;4.18;100.00;102327.16;10549052;28;20463;-82
2021/11/16 08:11:38;;;;;;;61.78;29.75;;;;;;;4.17;100.00;102320.25;10559369;28;20058;-82
2021/11/16 08:16:51;;;;;;;57.55;29.65;;;;;;;4.15;100.00;102327.84;10578418;28;20043;-81
2021/11/16 08:21:57;;;;;;;72.50;30.85;;;;;;;4.13;100.00;102305.47;10577331;28;20496;-82
2021/11/16 08:27:00;;;;;;;;;;;;;;;4.16;100.00;102310.81;10564793;28;20126;-81
2021/11/16 08:32:11;;;;;;;60.08;28.00;;;;;;;4.25;100.00;102313.94;10571618;28;19923;-80
2021/11/16 08:37:14;;;;;;;63.95;28.83;;;;;;;4.16;100.00;102305.69;10562698;28;20055;-81
2021/11/16 08:42:20;;;;;;;63.85;30.88;;;;;;;4.15;100.00;102309.03;10569263;28;20133;-81
2021/11/16 08:47:50;;;;;;;74.53;30.23;;;;;;;4.29;100.00;102305.69;10571851;28;20047;-80
2021/11/16 08:52:52;;;;;;;61.75;30.08;;;;;;;4.14;100.00;102292.78;10574234;28;20058;-81
2021/11/16 08:57:55;;;;;;;64.20;29.25;;;;;;;4.19;100.00;102296.50;10564356;28;20058;-81
2021/11/16 09:03:17;;;;;;;58.42;26.67;;;;;;;4.20;100.00;102285.50;10551303;28;20143;-81
2021/11/16 09:08:23;;;;;;;59.95;28.05;;;;;;;4.27;100.00;102286.78;10565953;28;20047;-81
2021/11/16 16:45:50;;;;;;;39.72;19.02;;;;;;;3.97;100.00;102019.44;9952625;29;20382;-82
2021/11/16 16:50:52;;;;;;;46.47;19.42;;;;;;;3.96;100.00;102020.22;9977351;29;20073;-81
2021/11/16 16:55:54;;;;;;;42.20;21.48;;;;;;;3.94;100.00;102015.03;9963927;29;20059;-82
2021/11/16 17:00:55;;;;;;;37.90;17.42;;;;;;;3.96;100.00;102010.88;9968053;29;20047;-82
2021/11/16 17:05:57;;;;;;;46.08;20.88;;;;;;;3.97;100.00;102012.66;9978367;29;20062;-81
2021/11/16 17:10:59;;;;;;;39.22;17.30;;;;;;;3.89;100.00;102013.84;9977625;29;20528;-82
2021/11/16 17:16:03;;;;;;;35.45;17.08;;;;;;;3.91;100.00;102012.31;9953473;29;20070;-82
2021/11/16 17:21:05;;;;;;;44.30;19.60;;;;;;;3.95;100.00;102015.91;9978002;29;20050;-82
2021/11/16 17:26:07;;;;;;;34.45;16.90;;;;;;;3.94;100.00;102024.38;9984092;29;20051;-81
2021/11/16 17:31:09;;;;;;;41.00;19.05;;;;;;;3.93;100.00;102031.19;9963093;29;20412;-81
2021/11/16 17:36:10;;;;;;;37.75;19.10;;;;;;;3.93;100.00;102026.06;9971766;29;20142;-81
2021/11/16 17:41:12;;;;;;;43.20;19.17;;;;;;;3.98;100.00;102031.47;9946943;29;20050;-82
2021/11/16 17:46:14;;;;;;;43.72;22.17;;;;;;;4.03;100.00;102032.63;9973465;29;20107;-83
2021/11/16 17:51:16;;;;;;;47.22;20.80;;;;;;;4.03;100.00;102034.28;9966215;29;20596;-83
2021/11/16 17:56:18;;;;;;;45.83;23.42;;;;;;;4.09;100.00;102020.19;9946513;29;20059;-83
2021/11/16 18:01:20;;;;;;;54.65;25.30;;;;;;;4.03;100.00;102030.06;9957986;29;20224;-83
2021/11/16 18:11:29;;;;;;;51.50;24.48;;;;;;;4.10;100.00;102015.97;10001494;29;20053;-83
2021/11/16 18:16:32;;;;;;;51.70;23.20;;;;;;;4.08;100.00;102017.53;9951728;29;20108;-82
2021/11/16 18:21:35;;;;;;;55.53;24.23;;;;;;;4.02;100.00;102018.03;9972027;29;20119;-81
2021/11/16 18:26:42;;;;;;;44.40;20.65;;;;;;;4.05;100.00;102019.91;9997778;29;20073;-83
2021/11/16 18:31:44;;;;;;;49.72;21.70;;;;;;;4.02;100.00;102012.91;9978866;29;20059;-83
2021/11/16 18:36:47;;;;;;;50.40;23.88;;;;;;;4.06;100.00;102012.31;9943944;29;20146;-83
2021/11/16 18:41:52;;;;;;;48.92;23.05;;;;;;;4.06;100.00;102008.88;9964583;29;20058;-82
2021/11/16 18:47:19;;;;;;;59.65;25.33;;;;;;;4.09;100.00;102001.41;9985403;29;20058;-83
2021/11/16 18:52:19;;;;;;;47.10;22.20;;;;;;;4.03;100.00;102008.69;9985016;29;20053;-83
2021/11/16 18:57:21;;;;;;;41.72;20.75;;;;;;;4.05;100.00;102000.31;9977063;29;20072;-83
2021/11/16 19:02:24;;;;;;;50.08;23.92;;;;;;;4.11;100.00;101999.78;9936216;29;20049;-83
2021/11/16 19:07:27;;;;;;;51.40;24.42;;;;;;;4.08;100.00;101994.47;9979000;29;20085;-83
2021/11/16 19:12:29;;;;;;;47.30;22.98;;;;;;;4.14;100.00;101982.03;9979834;29;20133;-83
2021/11/16 19:17:30;;;;;;;48.58;24.25;;;;;;;3.99;100.00;101988.03;9970461;29;20060;-82
2021/11/16 19:22:53;;;;;;;42.92;21.23;;;;;;;3.98;100.00;101981.16;9967948;29;20050;-84
2021/11/16 19:28:11;;;;;;;43.30;20.98;;;;;;;4.02;100.00;101971.94;9978142;29;20054;-84
2021/11/16 19:33:16;;;;;;;43.25;20.60;;;;;;;4.13;100.00;101978.59;9977906;29;20061;-83
2021/11/16 19:38:21;;;;;;;42.97;19.73;;;;;;;4.08;100.00;101966.31;9976179;29;20115;-83
2021/11/16 19:43:22;;;;;;;41.33;20.33;;;;;;;4.07;100.00;101962.00;9967996;29;20058;-83
2021/11/16 19:48:26;;;;;;;41.20;18.00;;;;;;;4.12;100.00;101956.34;9979634;29;20062;-83
2021/11/16 19:53:28;;;;;;;48.45;19.85;;;;;;;4.10;100.00;101962.19;9979821;29;20111;-84
2021/11/16 19:58:29;;;;;;;45.03;20.17;;;;;;;4.14;100.00;101972.72;9980597;29;20062;-83
2021/11/16 20:03:31;;;;;;;48.45;21.45;;;;;;;4.10;100.00;101975.00;9963793;29;20050;-83
2021/11/16 20:08:33;;;;;;;40.92;19.70;;;;;;;4.15;100.00;101968.47;9972427;29;20125;-83
2021/11/16 20:13:36;;;;;;;50.58;22.80;;;;;;;4.07;100.00;101982.47;9984608;29;20433;-83
2021/11/16 20:18:40;;;;;;;51.40;21.30;;;;;;;4.08;100.00;101977.44;9972731;29;20054;-82
2021/11/16 20:23:44;;;;;;;48.22;20.95;;;;;;;4.09;100.00;101974.09;9977706;29;20054;-83
2021/11/16 20:29:11;;;;;;;57.67;22.58;;;;;;;4.11;100.00;101969.94;9977792;29;20053;-83
2021/11/16 20:34:20;;;;;;;45.30;20.20;;;;;;;4.11;100.00;101961.38;9963731;29;20108;-82
2021/11/16 20:44:49;;;;;;;45.67;22.95;;;;;;;4.14;100.00;101959.00;9957754;29;20054;-83
2021/11/16 21:00:31;;;;;;;48.13;22.33;;;;;;;4.12;100.00;101950.34;9972195;29;20062;-83
2021/11/16 21:05:35;;;;;;;48.92;22.42;;;;;;;4.19;100.00;101939.66;9967520;29;20066;-84
2021/11/16 21:10:39;;;;;;;57.33;27.25;;;;;;;4.11;100.00;101928.09;9971922;29;20059;-83
2021/11/16 21:15:41;;;;;;;50.00;22.50;;;;;;;4.07;100.00;101921.03;9984368;29;20062;-84
2021/11/16 21:20:43;;;;;;;63.55;26.88;;;;;;;4.09;100.00;101937.38;9985556;29;20055;-82
2021/11/16 21:25:47;;;;;;;56.45;25.15;;;;;;;4.13;100.00;101937.63;9978039;29;20082;-83
2021/11/16 21:30:50;;;;;;;56.78;24.27;;;;;;;4.16;100.00;101931.81;9981294;29;20105;-82
2021/11/16 21:35:52;;;;;;;55.97;24.33;;;;;;;4.20;100.00;101934.66;9969833;29;20066;-83
2021/11/16 21:40:55;;;;;;;59.92;27.02;;;;;;;4.22;100.00;101940.75;9969173;29;20054;-83
2021/11/16 21:45:57;;;;;;;68.55;29.08;;;;;;;4.14;100.00;101941.06;9985159;29;20141;-83
2021/11/16 21:50:59;;;;;;;59.33;28.20;;;;;;;4.29;100.00;101944.53;9966402;29;20116;-83
2021/11/16 21:56:04;;;;;;;67.90;29.00;;;;;;;4.20;100.00;101938.91;9971729;29;20059;-83
2021/11/16 22:01:06;;;;;;;64.13;29.40;;;;;;;4.21;100.00;101935.53;9946109;29;20439;-83
2021/11/16 22:06:17;;;;;;;65.93;31.17;;;;;;;4.21;100.00;101928.72;9930980;29;20483;-82
2021/11/16 22:16:26;;;;;;;75.63;33.78;;;;;;;4.24;100.00;101923.78;9961243;29;20058;-83
2021/11/16 22:21:30;;;;;;;73.07;29.83;;;;;;;4.30;100.00;101918.13;9984822;29;20103;-83
2021/11/16 22:26:31;;;;;;;66.57;29.90;;;;;;;4.20;100.00;101905.59;9956058;29;20512;-84
2021/11/16 22:31:33;;;;;;;72.93;32.47;;;;;;;4.28;100.00;101914.59;9967659;29;20443;-83
2021/11/16 22:36:36;;;;;;;67.30;31.20;;;;;;;4.25;100.00;101904.16;9961709;29;20054;-83
2021/11/16 22:41:44;;;;;;;68.03;29.73;;;;;;;4.32;100.00;101910.53;9977521;29;20059;-83
2021/11/16 22:46:46;;;;;;;71.30;31.40;;;;;;;4.35;100.00;101921.81;9956310;29;20069;-83
2021/11/16 22:51:49;;;;;;;70.78;32.33;;;;;;;4.32;100.00;101913.09;9979232;29;20050;-83
2021/11/16 22:56:52;;;;;;;64.60;32.13;;;;;;;4.35;100.00;101920.94;9966403;29;20141;-83
